createdAt,value
2018-05-04T00:00:30.074Z,65.43
2018-05-04T00:02:33.517Z,65.34
2018-05-04T00:04:36.841Z,65.78
2018-05-04T00:06:40.172Z,65.51
2018-05-04T00:08:43.558Z,66.02
2018-05-04T00:10:46.898Z,66.27
2018-05-04T00:12:50.508Z,66.51
2018-05-04T00:14:53.864Z,66.52
2018-05-04T00:16:57.162Z,66.72
2018-05-04T00:19:01.284Z,66.77
2018-05-04T00:21:04.604Z,66.94
2018-05-04T00:23:07.915Z,66.60
2018-05-04T00:25:11.238Z,67.09
2018-05-04T00:27:15.351Z,67.25
2018-05-04T00:29:19.425Z,67.39
2018-05-04T00:31:22.828Z,67.67
2018-05-04T00:33:26.191Z,67.78
2018-05-04T00:35:29.635Z,68.01
2018-05-04T00:37:33.835Z,68.02
2018-05-04T00:39:37.214Z,68.30
2018-05-04T00:41:40.518Z,68.72
2018-05-04T00:43:43.840Z,68.94
2018-05-04T00:45:47.952Z,69.17
2018-05-04T00:47:52.025Z,68.78
2018-05-04T00:49:56.115Z,68.82
2018-05-04T00:51:59.440Z,69.16
2018-05-04T00:54:20.353Z,69.33
2018-05-04T00:56:23.646Z,69.65
2018-05-04T00:58:27.774Z,69.74
2018-05-04T01:00:31.106Z,69.90
2018-05-04T01:02:34.423Z,69.99
2018-05-04T01:04:37.852Z,70.40
2018-05-04T01:06:41.182Z,70.71
2018-05-04T01:08:45.718Z,70.58
2018-05-04T01:10:49.191Z,71.07
2018-05-04T01:12:58.286Z,71.22
2018-05-04T01:15:01.589Z,71.35
2018-05-04T01:17:05.017Z,71.36
2018-05-04T01:19:08.326Z,71.58
2018-05-04T01:21:11.672Z,71.72
2018-05-04T01:23:15.121Z,71.76
2018-05-04T01:25:18.557Z,71.73
2018-05-04T01:27:21.885Z,71.62
2018-05-04T01:31:48.350Z,71.63
2018-05-04T01:33:51.694Z,71.80
2018-05-04T01:35:55.024Z,71.93
2018-05-04T01:37:58.438Z,71.82
2018-05-04T01:40:01.796Z,71.41
2018-05-04T01:42:05.143Z,71.68
2018-05-04T01:44:08.528Z,71.96
2018-05-04T01:46:12.598Z,71.69
2018-05-04T01:48:15.953Z,72.02
2018-05-04T01:50:19.275Z,72.10
2018-05-04T01:52:22.589Z,72.12
2018-05-04T01:54:25.942Z,72.12
2018-05-04T01:56:30.303Z,72.41
2018-05-04T01:58:34.412Z,72.32
2018-05-04T02:00:37.821Z,72.13
2018-05-04T02:02:41.900Z,72.53
2018-05-04T02:04:45.225Z,72.53
2018-05-04T02:06:49.275Z,72.57
2018-05-04T02:08:52.588Z,72.88
2018-05-04T02:10:55.885Z,73.08
2018-05-04T02:12:59.998Z,73.13
2018-05-04T02:15:03.358Z,72.87
2018-05-04T02:17:06.683Z,73.21
2018-05-04T02:19:10.226Z,73.45
2018-05-04T02:21:13.557Z,73.68
2018-05-04T02:23:16.865Z,73.53
2018-05-04T02:25:20.314Z,73.58
2018-05-04T02:27:23.670Z,73.87
2018-05-04T02:29:27.006Z,73.67
2018-05-04T02:31:30.310Z,73.77
2018-05-04T02:33:33.591Z,73.56
2018-05-04T02:35:37.247Z,73.91
2018-05-04T02:37:40.546Z,74.24
2018-05-04T02:39:44.634Z,74.21
2018-05-04T02:41:48.000Z,73.95
2018-05-04T02:43:51.383Z,74.04
2018-05-04T02:45:54.706Z,74.37
2018-05-04T02:47:58.089Z,74.52
2018-05-04T02:50:01.429Z,74.67
2018-05-04T02:52:04.773Z,74.65
2018-05-04T02:54:08.158Z,74.82
2018-05-04T02:56:11.556Z,74.98
2018-05-04T02:58:14.866Z,74.81
2018-05-04T03:00:18.950Z,74.77
2018-05-04T03:02:22.329Z,74.92
2018-05-04T03:04:26.407Z,75.25
2018-05-04T03:06:29.720Z,75.54
2018-05-04T03:08:33.028Z,75.91
2018-05-04T03:10:36.411Z,76.00
2018-05-04T03:12:39.695Z,75.90
2018-05-04T03:14:43.018Z,75.86
2018-05-04T03:16:46.508Z,75.76
2018-05-04T03:18:49.903Z,75.60
2018-05-04T03:20:53.318Z,75.72
2018-05-04T03:22:56.633Z,75.69
2018-05-04T03:24:59.941Z,75.49
2018-05-04T03:27:03.316Z,75.43
2018-05-04T03:29:06.686Z,75.24
2018-05-04T03:31:09.981Z,75.07
2018-05-04T03:33:14.191Z,75.02
2018-05-04T03:35:17.506Z,74.86
2018-05-04T03:37:20.817Z,74.54
2018-05-04T03:39:24.281Z,74.80
2018-05-04T03:41:27.693Z,74.89
2018-05-04T03:43:31.012Z,75.19
2018-05-04T03:45:34.393Z,75.32
2018-05-04T03:47:37.806Z,74.80
2018-05-04T03:49:41.104Z,73.97
2018-05-04T03:51:45.328Z,73.52
2018-05-04T03:53:48.671Z,72.99
2018-05-04T03:55:51.992Z,73.01
2018-05-04T03:58:13.026Z,72.56
2018-05-04T04:00:33.829Z,72.03
2018-05-04T04:02:55.392Z,72.00
2018-05-04T04:04:58.816Z,71.62
2018-05-04T04:07:02.128Z,71.19
2018-05-04T04:09:07.246Z,71.09
2018-05-04T04:11:10.571Z,71.00
2018-05-04T04:13:14.828Z,70.74
2018-05-04T04:15:18.210Z,70.98
2018-05-04T04:17:21.570Z,71.25
2018-05-04T04:19:24.923Z,71.66
2018-05-04T04:21:28.267Z,72.01
2018-05-04T04:23:32.370Z,72.28
2018-05-04T04:25:36.461Z,72.38
2018-05-04T04:27:39.803Z,72.37
2018-05-04T04:29:43.130Z,72.12
2018-05-04T04:31:46.443Z,72.38
2018-05-04T04:33:50.542Z,72.04
2018-05-04T04:35:54.737Z,72.13
2018-05-04T04:37:58.035Z,71.83
2018-05-04T04:40:01.437Z,71.68
2018-05-04T04:42:04.890Z,71.59
2018-05-04T04:44:08.229Z,71.67
2018-05-04T04:46:11.588Z,71.64
2018-05-04T04:48:15.834Z,71.12
2018-05-04T04:50:19.221Z,70.65
2018-05-04T04:52:22.883Z,71.04
2018-05-04T04:54:26.931Z,71.29
2018-05-04T04:56:30.361Z,71.65
2018-05-04T04:58:33.702Z,72.08
2018-05-04T05:00:37.109Z,72.68
2018-05-04T05:02:40.496Z,72.37
2018-05-04T05:04:44.879Z,72.71
2018-05-04T05:06:49.107Z,73.26
2018-05-04T05:08:52.513Z,73.55
2018-05-04T05:10:55.838Z,73.58
2018-05-04T05:12:59.171Z,73.52
2018-05-04T05:15:02.467Z,73.45
2018-05-04T05:17:05.793Z,72.79
2018-05-04T05:19:09.971Z,72.88
2018-05-04T05:21:13.330Z,71.83
2018-05-04T05:23:17.002Z,72.04
2018-05-04T05:25:20.411Z,72.23
2018-05-04T05:27:24.554Z,72.37
2018-05-04T05:29:27.917Z,71.80
2018-05-04T05:31:31.353Z,71.85
2018-05-04T05:33:34.829Z,71.84
2018-05-04T05:35:38.217Z,72.13
2018-05-04T05:37:41.595Z,72.17
2018-05-04T05:39:45.729Z,72.21
2018-05-04T05:41:49.082Z,71.93
2018-05-04T05:43:53.286Z,71.46
2018-05-04T05:45:57.503Z,71.16
2018-05-04T05:48:01.638Z,71.58
2018-05-04T05:50:05.777Z,71.61
2018-05-04T05:54:13.433Z,71.12
2018-05-04T05:56:16.881Z,70.97
2018-05-04T05:58:21.120Z,70.55
2018-05-04T06:00:24.626Z,70.08
2018-05-04T06:02:28.019Z,69.44
2018-05-04T06:04:31.350Z,69.27
2018-05-04T06:06:34.737Z,69.40
2018-05-04T06:08:38.086Z,69.25
2018-05-04T06:10:41.453Z,69.18
2018-05-04T06:12:44.855Z,68.75
2018-05-04T06:14:48.255Z,68.97
2018-05-04T06:16:51.653Z,68.66
2018-05-04T06:18:54.969Z,68.63
2018-05-04T06:20:59.239Z,68.43
2018-05-04T06:23:02.633Z,68.47
2018-05-04T06:25:06.046Z,68.62
2018-05-04T06:27:09.344Z,68.52
2018-05-04T06:29:12.709Z,68.18
2018-05-04T06:31:16.048Z,67.76
2018-05-04T06:33:19.433Z,67.47
2018-05-04T06:35:22.898Z,67.26
2018-05-04T06:37:26.264Z,67.07
2018-05-04T06:39:29.640Z,66.87
2018-05-04T06:41:33.742Z,66.33
2018-05-04T06:43:37.125Z,65.92
2018-05-04T06:45:41.293Z,65.44
2018-05-04T06:47:44.608Z,64.66
2018-05-04T06:49:47.928Z,64.78
2018-05-04T06:51:51.278Z,64.22
2018-05-04T06:53:54.671Z,63.30
2018-05-04T06:55:57.986Z,62.81
2018-05-04T06:58:01.360Z,61.97
2018-05-04T07:00:05.459Z,61.27
2018-05-04T07:02:08.861Z,60.47
2018-05-04T07:04:12.209Z,60.32
2018-05-04T07:06:15.582Z,60.04
2018-05-04T07:08:18.955Z,59.98
2018-05-04T07:10:22.336Z,59.50
2018-05-04T07:12:25.804Z,58.99
2018-05-04T07:14:29.189Z,59.31
2018-05-04T07:16:32.584Z,57.30
2018-05-04T07:18:35.928Z,56.21
2018-05-04T07:20:39.237Z,55.95
2018-05-04T07:22:42.604Z,55.65
2018-05-04T07:24:45.918Z,54.01
2018-05-04T07:26:49.993Z,53.61
2018-05-04T07:28:53.354Z,53.78
2018-05-04T07:30:56.728Z,52.49
2018-05-04T07:33:00.075Z,51.78
2018-05-04T07:35:03.427Z,50.86
2018-05-04T07:37:06.825Z,51.48
2018-05-04T07:39:10.191Z,51.31
2018-05-04T07:41:13.555Z,50.72
2018-05-04T07:43:17.015Z,50.00
2018-05-04T07:45:20.380Z,49.88
2018-05-04T07:47:24.713Z,47.87
2018-05-04T07:49:28.128Z,47.33
2018-05-04T07:51:31.659Z,47.66
2018-05-04T07:53:35.096Z,47.25
2018-05-04T07:55:38.499Z,46.51
2018-05-04T07:57:41.869Z,46.44
2018-05-04T07:59:45.236Z,45.74
2018-05-04T08:01:49.670Z,44.83
2018-05-04T08:03:53.048Z,44.16
2018-05-04T08:05:57.184Z,44.48
2018-05-04T08:08:00.546Z,44.58
2018-05-04T08:10:03.946Z,44.41
2018-05-04T08:12:07.284Z,44.73
2018-05-04T08:14:10.632Z,44.09
2018-05-04T08:16:14.055Z,43.01
2018-05-04T08:18:17.409Z,41.85
2018-05-04T08:20:20.803Z,41.93
2018-05-04T08:22:24.223Z,41.56
2018-05-04T08:26:37.999Z,40.59
2018-05-04T08:28:41.375Z,41.54
2018-05-04T08:30:44.761Z,40.33
2018-05-04T08:32:48.969Z,39.44
2018-05-04T08:34:52.404Z,40.80
2018-05-04T08:36:55.904Z,39.84
2018-05-04T08:38:59.323Z,38.83
2018-05-04T08:41:04.287Z,39.57
2018-05-04T08:43:08.543Z,39.67
2018-05-04T08:45:12.311Z,39.32
2018-05-04T08:47:15.665Z,38.37
2018-05-04T08:49:19.812Z,38.93
2018-05-04T08:51:23.242Z,38.74
2018-05-04T08:53:26.642Z,39.13
2018-05-04T08:55:30.097Z,39.19
2018-05-04T08:57:33.478Z,40.00
2018-05-04T08:59:36.881Z,40.24
2018-05-04T09:01:40.300Z,40.45
2018-05-04T09:03:43.711Z,40.08
2018-05-04T09:05:47.123Z,40.73
2018-05-04T09:07:50.545Z,40.19
2018-05-04T09:09:54.737Z,40.49
2018-05-04T09:11:58.163Z,40.98
2018-05-04T09:14:01.601Z,40.84
2018-05-04T09:16:05.038Z,40.28
2018-05-04T09:18:08.422Z,40.92
2018-05-04T09:20:12.112Z,41.15
2018-05-04T09:22:15.495Z,41.51
2018-05-04T09:24:19.015Z,40.86
2018-05-04T09:26:22.577Z,40.98
2018-05-04T09:28:27.023Z,40.70
2018-05-04T09:30:30.446Z,40.83
2018-05-04T09:32:33.851Z,40.14
2018-05-04T09:34:37.189Z,40.67
2018-05-04T09:36:40.603Z,40.83
2018-05-04T09:38:44.132Z,40.48
2018-05-04T09:40:47.476Z,40.06
2018-05-04T09:42:51.004Z,40.15
2018-05-04T09:44:54.222Z,39.94
2018-05-04T09:46:57.608Z,40.48
2018-05-04T09:49:00.990Z,40.18
2018-05-04T09:51:05.195Z,39.62
2018-05-04T09:53:08.559Z,39.12
2018-05-04T09:55:12.052Z,39.56
2018-05-04T09:57:16.542Z,38.43
2018-05-04T09:59:20.044Z,37.97
2018-05-04T10:01:23.414Z,37.09
2018-05-04T10:03:26.831Z,37.72
2018-05-04T10:05:30.240Z,37.60
2018-05-04T10:07:33.603Z,37.86
2018-05-04T10:09:37.026Z,37.75
2018-05-04T10:11:40.440Z,37.94
2018-05-04T10:13:43.821Z,37.75
2018-05-04T10:15:47.304Z,38.29
2018-05-04T10:17:50.647Z,37.40
2018-05-04T10:19:54.798Z,38.35
2018-05-04T10:21:58.232Z,37.59
2018-05-04T10:24:01.732Z,37.03
2018-05-04T10:26:05.305Z,36.99
2018-05-04T10:28:08.721Z,36.85
2018-05-04T10:30:26.838Z,37.36
2018-05-04T10:32:30.203Z,36.84
2018-05-04T10:34:33.551Z,36.32
2018-05-04T10:36:37.653Z,37.42
2018-05-04T10:38:41.234Z,36.31
2018-05-04T10:40:45.262Z,36.64
2018-05-04T10:42:49.371Z,36.04
2018-05-04T10:44:52.748Z,36.76
2018-05-04T10:47:04.976Z,37.00
2018-05-04T10:49:08.439Z,36.67
2018-05-04T10:51:11.810Z,35.45
2018-05-04T10:53:15.151Z,35.24
2018-05-04T10:55:18.596Z,35.21
2018-05-04T10:57:22.241Z,35.89
2018-05-04T10:59:26.047Z,34.93
2018-05-04T11:01:29.586Z,34.68
2018-05-04T11:03:32.984Z,34.92
2018-05-04T11:05:36.394Z,34.93
2018-05-04T11:07:39.793Z,35.46
2018-05-04T11:09:43.146Z,35.29
2018-05-04T11:11:46.578Z,35.24
2018-05-04T11:13:49.968Z,34.80
2018-05-04T11:15:53.325Z,34.85
2018-05-04T11:17:56.767Z,34.77
2018-05-04T11:20:00.187Z,34.79
2018-05-04T11:22:03.547Z,34.95
2018-05-04T11:24:07.088Z,34.30
2018-05-04T11:26:11.281Z,35.23
2018-05-04T11:28:15.079Z,34.94
2018-05-04T11:30:18.593Z,34.15
2018-05-04T11:32:24.141Z,35.30
2018-05-04T11:34:28.315Z,34.70
2018-05-04T11:36:31.724Z,35.40
2018-05-04T11:38:35.107Z,36.27
2018-05-04T11:40:38.523Z,36.36
2018-05-04T11:42:41.977Z,35.78
2018-05-04T11:44:45.347Z,34.92
2018-05-04T11:46:49.610Z,34.77
2018-05-04T11:48:53.068Z,34.42
2018-05-04T11:50:56.394Z,34.80
2018-05-04T11:53:00.546Z,34.34
2018-05-04T11:55:03.986Z,35.03
2018-05-04T11:57:07.389Z,35.23
2018-05-04T11:59:10.766Z,34.73
2018-05-04T12:01:14.208Z,33.72
2018-05-04T12:03:18.384Z,33.90
2018-05-04T12:05:21.864Z,33.88
2018-05-04T12:07:25.250Z,34.33
2018-05-04T12:09:29.062Z,34.74
2018-05-04T12:11:32.446Z,34.34
2018-05-04T12:13:36.011Z,34.54
2018-05-04T12:15:39.437Z,34.28
2018-05-04T12:17:42.788Z,34.32
2018-05-04T12:19:47.001Z,33.43
2018-05-04T12:21:51.124Z,33.98
2018-05-04T12:23:54.571Z,33.37
2018-05-04T12:25:57.977Z,32.77
2018-05-04T12:28:02.218Z,31.89
2018-05-04T12:30:06.407Z,31.63
2018-05-04T12:32:09.868Z,32.21
2018-05-04T12:34:13.422Z,32.13
2018-05-04T12:36:17.222Z,32.25
2018-05-04T12:38:20.588Z,32.65
2018-05-04T12:40:23.925Z,32.76
2018-05-04T12:42:28.201Z,32.69
2018-05-04T12:44:31.535Z,32.31
2018-05-04T12:46:34.977Z,32.76
2018-05-04T12:48:38.374Z,31.38
2018-05-04T12:50:41.837Z,31.53
2018-05-04T12:52:45.279Z,31.02
2018-05-04T12:54:48.699Z,31.54
2018-05-04T12:56:52.155Z,31.83
2018-05-04T12:58:55.521Z,32.08
2018-05-04T13:00:59.010Z,31.03
2018-05-04T13:03:02.583Z,30.73
2018-05-04T13:07:23.113Z,31.89
2018-05-04T13:09:26.677Z,32.14
2018-05-04T13:11:30.774Z,31.93
2018-05-04T13:13:35.059Z,31.59
2018-05-04T13:15:38.585Z,31.75
2018-05-04T13:17:41.969Z,31.48
2018-05-04T13:19:45.336Z,31.13
2018-05-04T13:21:48.746Z,30.80
2018-05-04T13:23:52.120Z,30.79
2018-05-04T13:25:55.588Z,31.16
2018-05-04T13:27:58.989Z,30.50
2018-05-04T13:30:02.330Z,30.96
2018-05-04T13:32:05.723Z,30.67
2018-05-04T13:34:09.179Z,30.81
2018-05-04T13:36:12.579Z,30.27
2018-05-04T13:38:16.020Z,30.29
2018-05-04T13:40:20.265Z,30.19
2018-05-04T13:42:23.775Z,29.89
2018-05-04T13:44:27.178Z,29.93
2018-05-04T13:46:30.597Z,29.32
2018-05-04T13:48:33.960Z,28.88
2018-05-04T13:50:37.375Z,28.63
2018-05-04T13:52:40.815Z,28.89
2018-05-04T13:54:44.385Z,29.10
2018-05-04T13:56:47.776Z,29.71
2018-05-04T13:58:51.302Z,30.02
2018-05-04T14:00:54.726Z,30.47
2018-05-04T14:02:58.141Z,30.35
2018-05-04T14:05:01.616Z,30.26
2018-05-04T14:07:05.993Z,30.37
2018-05-04T14:09:09.369Z,29.49
2018-05-04T14:11:14.336Z,29.79
2018-05-04T14:13:18.297Z,30.80
2018-05-04T14:15:21.705Z,30.17
2018-05-04T14:17:26.601Z,30.45
2018-05-04T14:19:31.122Z,30.03
2018-05-04T14:21:34.578Z,30.08
2018-05-04T14:23:37.928Z,30.06
2018-05-04T14:25:42.390Z,30.63
2018-05-04T14:27:45.831Z,30.83
2018-05-04T14:29:49.227Z,31.45
2018-05-04T14:31:52.681Z,31.51
2018-05-04T14:33:56.119Z,31.60
2018-05-04T14:35:59.563Z,31.48
2018-05-04T14:38:03.044Z,31.66
2018-05-04T14:40:06.588Z,31.51
2018-05-04T14:42:10.152Z,31.08
2018-05-04T14:44:13.528Z,31.53
2018-05-04T14:46:17.633Z,31.43
2018-05-04T14:48:21.009Z,31.47
2018-05-04T14:50:25.127Z,31.78
2018-05-04T14:52:28.603Z,31.17
2018-05-04T14:54:32.112Z,30.91
2018-05-04T14:56:36.336Z,31.11
2018-05-04T14:58:40.958Z,30.73
2018-05-04T15:00:45.223Z,30.73
2018-05-04T15:02:48.676Z,30.63
2018-05-04T15:04:52.292Z,31.29
2018-05-04T15:06:56.157Z,30.64
2018-05-04T15:09:02.855Z,31.16
2018-05-04T15:11:06.263Z,30.54
2018-05-04T15:13:09.788Z,30.49
2018-05-04T15:15:13.178Z,29.92
2018-05-04T15:17:16.553Z,29.87
2018-05-04T15:19:20.014Z,30.39
2018-05-04T15:21:24.194Z,29.98
2018-05-04T15:23:27.605Z,29.76
2018-05-04T15:25:31.934Z,30.25
2018-05-04T15:27:35.300Z,30.07
2018-05-04T15:29:38.720Z,30.93
2018-05-04T15:31:42.081Z,30.92
2018-05-04T15:33:45.483Z,31.34
2018-05-04T15:35:48.838Z,31.35
2018-05-04T15:37:52.285Z,31.22
2018-05-04T15:39:56.666Z,30.88
2018-05-04T15:41:59.911Z,30.80
2018-05-04T15:44:03.294Z,30.51
2018-05-04T15:46:07.480Z,30.29
2018-05-04T15:50:55.041Z,29.44
2018-05-04T15:52:59.172Z,28.65
2018-05-04T15:55:02.603Z,27.64
2018-05-04T15:57:06.038Z,27.25
2018-05-04T15:59:10.381Z,26.37
2018-05-04T16:01:13.808Z,25.44
2018-05-04T16:03:17.255Z,25.69
2018-05-04T16:05:22.113Z,25.58
2018-05-04T16:07:26.167Z,25.05
2018-05-04T16:09:29.569Z,24.37
2018-05-04T16:11:33.063Z,24.70
2018-05-04T16:13:36.550Z,25.08
2018-05-04T16:15:40.045Z,23.88
2018-05-04T16:17:43.408Z,25.01
2018-05-04T16:19:46.838Z,25.44
2018-05-04T16:21:50.199Z,27.16
2018-05-04T16:23:53.639Z,28.68
2018-05-04T16:25:57.080Z,29.88
2018-05-04T16:28:00.532Z,30.21
2018-05-04T16:30:04.865Z,30.65
2018-05-04T16:32:08.252Z,31.04
2018-05-04T16:34:12.131Z,30.78
2018-05-04T16:36:16.553Z,30.66
2018-05-04T16:38:19.987Z,30.89
2018-05-04T16:40:23.467Z,31.00
2018-05-04T16:42:26.820Z,30.88
2018-05-04T16:44:30.250Z,30.87
2018-05-04T16:46:39.862Z,30.86
2018-05-04T16:48:49.551Z,30.51
2018-05-04T16:50:52.936Z,30.69
2018-05-04T16:52:56.389Z,30.53
2018-05-04T16:54:59.845Z,30.83
2018-05-04T16:57:03.282Z,30.61
2018-05-04T16:59:25.336Z,30.67
2018-05-04T17:01:29.776Z,30.50
2018-05-04T17:03:33.158Z,30.09
2018-05-04T17:05:36.633Z,29.77
2018-05-04T17:07:40.874Z,29.33
2018-05-04T17:09:44.260Z,28.37
2018-05-04T17:11:48.742Z,27.27
2018-05-04T17:13:52.204Z,26.26
2018-05-04T17:15:55.696Z,25.47
2018-05-04T17:17:59.103Z,25.01
2018-05-04T17:20:05.786Z,25.33
2018-05-04T17:22:11.171Z,25.00
2018-05-04T17:24:14.554Z,25.22
2018-05-04T17:26:17.989Z,24.60
2018-05-04T17:28:21.413Z,24.34
2018-05-04T17:30:24.877Z,25.20
2018-05-04T17:32:29.075Z,25.94
2018-05-04T17:34:32.497Z,27.81
2018-05-04T17:36:35.888Z,29.10
2018-05-04T17:38:39.509Z,30.91
2018-05-04T17:40:42.876Z,31.97
2018-05-04T17:42:46.289Z,32.37
2018-05-04T17:44:51.283Z,33.10
2018-05-04T17:46:54.767Z,33.54
2018-05-04T17:48:58.270Z,33.72
2018-05-04T17:51:01.693Z,34.05
2018-05-04T17:53:05.100Z,34.37
2018-05-04T17:55:08.584Z,34.33
2018-05-04T17:57:11.954Z,34.49
2018-05-04T17:59:15.426Z,34.80
2018-05-04T18:01:18.874Z,34.99
2018-05-04T18:03:22.714Z,34.88
2018-05-04T18:05:26.801Z,35.10
2018-05-04T18:07:31.147Z,35.60
2018-05-04T18:09:34.637Z,35.74
2018-05-04T18:11:38.004Z,35.97
2018-05-04T18:13:41.455Z,36.18
2018-05-04T18:15:44.976Z,36.69
2018-05-04T18:17:48.439Z,36.36
2018-05-04T18:19:54.396Z,36.71
2018-05-04T18:21:57.827Z,36.92
2018-05-04T18:24:03.025Z,37.04
2018-05-04T18:26:07.911Z,37.47
2018-05-04T18:28:12.291Z,37.51
2018-05-04T18:30:16.497Z,37.70
2018-05-04T18:32:20.568Z,38.01
2018-05-04T18:34:24.029Z,38.13
2018-05-04T18:36:27.473Z,38.47
2018-05-04T18:38:30.928Z,38.77
2018-05-04T18:40:34.413Z,39.01
2018-05-04T18:42:37.862Z,39.29
2018-05-04T18:44:41.342Z,39.35
2018-05-04T18:46:44.793Z,39.61
2018-05-04T18:48:48.406Z,39.81
2018-05-04T18:50:52.361Z,39.84
2018-05-04T18:52:55.781Z,40.04
2018-05-04T18:54:59.233Z,40.09
2018-05-04T18:57:02.808Z,40.18
2018-05-04T18:59:09.218Z,40.61
2018-05-04T19:01:13.427Z,40.58
2018-05-04T19:03:22.803Z,40.89
2018-05-04T19:05:26.276Z,41.15
2018-05-04T19:07:30.072Z,41.56
2018-05-04T19:09:36.720Z,41.64
2018-05-04T19:11:40.300Z,41.84
2018-05-04T19:13:43.801Z,42.10
2018-05-04T19:15:47.336Z,42.29
2018-05-04T19:17:54.927Z,42.15
2018-05-04T19:19:59.941Z,42.55
2018-05-04T19:22:03.667Z,42.25
2018-05-04T19:24:07.863Z,42.76
2018-05-04T19:26:11.816Z,42.96
2018-05-04T19:28:16.088Z,43.29
2018-05-04T19:30:19.650Z,43.61
2018-05-04T19:32:23.712Z,43.62
2018-05-04T19:34:27.288Z,43.70
2018-05-04T19:36:30.746Z,43.88
2018-05-04T19:38:36.514Z,44.15
2018-05-04T19:40:40.199Z,44.48
2018-05-04T19:42:49.671Z,44.56
2018-05-04T19:45:01.547Z,44.87
2018-05-04T19:47:08.361Z,45.11
2018-05-04T19:49:16.160Z,45.38
2018-05-04T19:51:27.748Z,45.23
2018-05-04T19:53:31.430Z,45.50
2018-05-04T19:55:35.247Z,45.85
2018-05-04T19:57:39.567Z,45.69
2018-05-04T19:59:43.645Z,45.86
2018-05-04T20:01:50.762Z,45.99
2018-05-04T20:03:59.559Z,46.31
2018-05-04T20:08:17.215Z,46.68
2018-05-04T20:10:22.453Z,46.99
2018-05-04T20:12:28.040Z,47.07
2018-05-04T20:14:33.336Z,47.39
2018-05-04T20:16:37.886Z,47.15
2018-05-04T20:18:44.611Z,46.72
2018-05-04T20:20:50.786Z,47.02
2018-05-04T20:22:55.739Z,47.11
2018-05-04T20:25:03.071Z,47.17
2018-05-04T20:27:07.290Z,47.19
2018-05-04T20:29:10.710Z,47.37
2018-05-04T20:31:14.805Z,47.50
2018-05-04T20:33:31.903Z,47.71
2018-05-04T20:36:08.267Z,47.54
2018-05-04T20:38:40.279Z,47.64
2018-05-04T20:40:43.788Z,47.87
2018-05-04T20:42:47.131Z,47.69
2018-05-04T20:44:51.290Z,47.88
2018-05-04T20:46:55.142Z,47.93
2018-05-04T20:48:59.912Z,48.18
2018-05-04T20:51:04.196Z,48.16
2018-05-04T20:53:08.288Z,48.50
2018-05-04T20:55:11.811Z,48.67
2018-05-04T20:57:15.744Z,48.42
2018-05-04T20:59:19.201Z,48.73
2018-05-04T21:01:22.771Z,48.92
2018-05-04T21:03:26.553Z,48.82
2018-05-04T21:05:30.181Z,48.99
2018-05-04T21:07:34.255Z,48.84
2018-05-04T21:09:37.796Z,48.96
2018-05-04T21:11:41.394Z,48.57
2018-05-04T21:13:45.044Z,48.23
2018-05-04T21:15:48.835Z,48.66
2018-05-04T21:17:52.216Z,48.85
2018-05-04T21:19:58.496Z,48.79
2018-05-04T21:22:01.924Z,49.05
2018-05-04T21:24:05.339Z,48.98
2018-05-04T21:26:08.698Z,49.01
2018-05-04T21:28:12.170Z,49.28
2018-05-04T21:30:15.692Z,49.17
2018-05-04T21:32:19.100Z,49.43
2018-05-04T21:34:22.509Z,49.59
2018-05-04T21:36:26.723Z,49.76
2018-05-04T21:38:30.144Z,50.02
2018-05-04T21:40:33.660Z,50.31
2018-05-04T21:42:37.026Z,50.38
2018-05-04T21:44:40.563Z,50.48
2018-05-04T21:46:44.003Z,50.30
2018-05-04T21:48:47.346Z,50.39
2018-05-04T21:50:50.707Z,50.57
2018-05-04T21:52:54.114Z,50.75
2018-05-04T21:54:57.445Z,50.85
2018-05-04T21:57:00.837Z,51.15
2018-05-04T21:59:04.356Z,51.46
2018-05-04T22:01:07.722Z,51.56
2018-05-04T22:03:11.166Z,51.81
2018-05-04T22:05:15.341Z,51.88
2018-05-04T22:07:18.733Z,52.19
2018-05-04T22:09:22.140Z,52.32
2018-05-04T22:11:25.594Z,52.39
2018-05-04T22:13:29.032Z,52.57
2018-05-04T22:15:32.472Z,52.63
2018-05-04T22:17:35.814Z,52.82
2018-05-04T22:19:40.123Z,52.92
2018-05-04T22:21:43.658Z,52.76
2018-05-04T22:23:48.536Z,53.00
2018-05-04T22:25:51.972Z,53.14
2018-05-04T22:27:56.132Z,53.31
2018-05-04T22:29:59.666Z,53.53
2018-05-04T22:32:03.078Z,53.57
2018-05-04T22:34:07.198Z,53.61
2018-05-04T22:36:11.041Z,53.77
2018-05-04T22:38:14.513Z,53.91
2018-05-04T22:40:17.893Z,54.09
2018-05-04T22:42:22.112Z,54.04
2018-05-04T22:44:25.537Z,54.42
2018-05-04T22:46:28.882Z,54.56
2018-05-04T22:48:32.371Z,54.62
2018-05-04T22:50:36.594Z,54.65
2018-05-04T22:52:40.739Z,54.74
2018-05-04T22:54:44.135Z,55.32
2018-05-04T22:56:47.524Z,55.48
2018-05-04T22:58:50.877Z,55.55
2018-05-04T23:00:54.316Z,55.70
2018-05-04T23:02:57.681Z,55.77
2018-05-04T23:05:02.194Z,55.93
2018-05-04T23:07:05.664Z,55.98
2018-05-04T23:09:09.700Z,56.06
2018-05-04T23:11:13.822Z,55.85
2018-05-04T23:13:17.195Z,56.21
2018-05-04T23:15:20.993Z,56.24
2018-05-04T23:17:25.176Z,56.38
2018-05-04T23:19:28.533Z,56.17
2018-05-04T23:21:31.881Z,56.42
2018-05-04T23:23:36.018Z,56.64
2018-05-04T23:27:49.660Z,56.89
2018-05-04T23:29:53.024Z,57.17
2018-05-04T23:31:56.413Z,57.68
2018-05-04T23:34:00.592Z,57.91
2018-05-04T23:36:03.925Z,58.03
2018-05-04T23:38:07.295Z,58.26
2018-05-04T23:40:10.706Z,58.06
2018-05-04T23:42:14.842Z,58.11
2018-05-04T23:44:18.199Z,58.40
2018-05-04T23:46:21.571Z,58.46
2018-05-04T23:48:25.769Z,58.64
2018-05-04T23:50:29.173Z,58.71
2018-05-04T23:52:32.737Z,58.59
2018-05-04T23:54:36.169Z,58.60
2018-05-04T23:56:39.527Z,58.80
2018-05-04T23:58:42.896Z,59.08
